Search for airport 
image banner adimage banner adimage banner ad
image banner ad

KCIC - Chico Muni

Located in Chico, United States

ICAO - CIC, IATA - CIC

Data provided by Airmate  

General information

Coordinates: N39°47'43" W121°51'30"
Elevation is 240 feet MSL.
Magnetic variation is 16° East
View others Airports in California

Operational data

Special qualification required
Current time UTC:
Current local time:
Weather
METAR: KCIC 141115Z AUTO 14014G18KT 10SM CLR 20/13 A2994 RMK AO1
View NOTAMs / SUP AIP / TFR affecting this airport [VIEW]
Communications frequencies: [VIEW]

Runways:

RWY identifierQFULength (ft)Width (ft)SurfaceLDA (ft)
13R147°300060ASPH3000
31L327°300060ASPH3000
13L147°6724150ASPH6724
31R327°6724150ASPH6724

Airport contact information

Address: Chico United States

Other aviation service providers

Flight schools

Northgate Aviation, Inc.

Northgate Aviation, Inc.

Satellite view of KCIC